Time;durP1;ratioP1;P1;durP2;ratioP2;P2;SDS_P1;SDS_P2;PMS_P1;PMS_P2;Temp;Humidity;BMP_temperature;BMP_pressure;BME280_temperature;BME280_humidity;BME280_pressure;Samples;Min_cycle;Max_cycle;Signal;HPM_P1;HPM_P2
2021/08/02 00:00:08;;;;;;;;;2.75;2.75;;;;;19.99;52.98;100661.75;5015260;28;45619;-79
2021/08/02 00:02:38;;;;;;;;;2.50;2.25;;;;;20.04;53.24;100672.72;5015367;28;45619;-78
2021/08/02 00:05:06;;;;;;;;;1.75;1.75;;;;;20.01;53.04;100668.59;5013543;28;47395;-77
2021/08/02 00:07:35;;;;;;;;;2.00;1.75;;;;;20.04;53.20;100670.91;5014919;28;47332;-80
2021/08/02 00:10:15;;;;;;;;;2.00;2.00;;;;;20.03;53.62;100666.56;5021744;28;45576;-79
2021/08/02 00:12:55;;;;;;;;;1.75;1.75;;;;;20.01;53.51;100675.75;5021584;28;45783;-78
2021/08/02 00:15:21;;;;;;;;;2.25;2.25;;;;;19.95;53.71;100663.09;5020810;28;45564;-79
2021/08/02 00:17:47;;;;;;;;;2.00;2.00;;;;;19.96;53.60;100670.09;5021677;28;45664;-77
2021/08/02 00:20:19;;;;;;;;;1.75;1.75;;;;;19.93;53.78;100673.91;5018581;28;45671;-76
2021/08/02 00:22:45;;;;;;;;;2.00;2.00;;;;;19.85;53.83;100662.47;5017075;28;45705;-77
2021/08/02 00:25:11;;;;;;;;;2.50;2.50;;;;;19.87;54.12;100665.75;5015141;28;45653;-80
2021/08/02 00:27:37;;;;;;;;;2.00;2.00;;;;;19.85;54.12;100668.59;5015347;28;46002;-80
2021/08/02 00:30:05;;;;;;;;;2.00;2.00;;;;;19.82;54.18;100668.94;4996643;28;45540;-76
2021/08/02 00:32:30;;;;;;;;;1.50;1.50;;;;;19.82;54.22;100668.94;5014226;28;45469;-81
2021/08/02 00:34:56;;;;;;;;;1.75;1.75;;;;;19.78;54.24;100662.28;5013793;28;46691;-79
2021/08/02 00:37:43;;;;;;;;;2.50;2.00;;;;;19.81;54.28;100671.78;5013936;28;45659;-81
2021/08/02 00:40:45;;;;;;;;;2.75;2.00;;;;;19.79;54.44;100668.44;4999718;28;45782;-80
2021/08/02 00:43:14;;;;;;;;;3.50;3.25;;;;;19.75;54.47;100683.06;4995949;28;45624;-80
2021/08/02 00:45:40;;;;;;;;;2.00;1.75;;;;;19.66;54.50;100667.09;5013951;28;45861;-80
2021/08/02 00:48:09;;;;;;;;;1.50;1.50;;;;;19.72;54.69;100670.09;5013970;28;45529;-78
2021/08/02 00:50:58;;;;;;;;;1.75;1.50;;;;;19.68;55.14;100669.59;5013787;28;45452;-79
2021/08/02 00:53:26;;;;;;;;;2.75;2.00;;;;;19.68;54.90;100678.41;5013410;28;45753;-78
2021/08/02 00:55:55;;;;;;;;;3.50;2.75;;;;;19.66;54.70;100680.41;5013410;28;47416;-78
2021/08/02 00:58:23;;;;;;;;;2.75;2.00;;;;;19.64;54.77;100674.44;5014390;28;46255;-80
2021/08/02 01:00:50;;;;;;;;;2.75;1.25;;;;;19.57;55.34;100669.94;5017293;28;45717;-78
2021/08/02 01:03:17;;;;;;;;;1.50;1.50;;;;;19.60;55.48;100674.91;5017258;28;45775;-78
2021/08/02 01:05:46;;;;;;;;;2.25;2.00;;;;;19.57;55.13;100668.09;5016940;28;46398;-78
2021/08/02 01:08:14;;;;;;;;;3.00;2.25;;;;;19.51;55.65;100660.78;5016991;28;46424;-80
2021/08/02 01:10:45;;;;;;;;;2.75;1.50;;;;;19.53;55.38;100664.13;5017144;28;45588;-77
2021/08/02 01:13:12;;;;;;;;;3.00;2.25;;;;;19.54;55.62;100662.31;5016812;28;45981;-76
2021/08/02 01:15:40;;;;;;;;;2.50;2.50;;;;;19.53;55.37;100665.94;5016494;28;46658;-77
2021/08/02 01:18:06;;;;;;;;;2.75;2.75;;;;;19.45;55.52;100656.13;5016595;28;46933;-78
2021/08/02 01:20:40;;;;;;;;;2.50;2.50;;;;;19.45;55.76;100664.09;5016887;28;45578;-77
2021/08/02 01:23:05;;;;;;;;;2.50;2.00;;;;;19.33;55.94;100640.63;5016911;28;45573;-77
2021/08/02 01:25:34;;;;;;;;;2.75;2.75;;;;;19.48;55.43;100673.59;5016749;28;45476;-78
2021/08/02 01:28:14;;;;;;;;;3.00;3.00;;;;;19.45;55.86;100668.59;5016738;28;45922;-76
2021/08/02 01:30:46;;;;;;;;;1.75;1.75;;;;;19.33;55.56;100661.88;5016842;28;45639;-76
2021/08/02 01:33:19;;;;;;;;;3.25;2.25;;;;;19.40;55.82;100676.19;5016841;28;45908;-77
2021/08/02 01:35:44;;;;;;;;;4.00;4.00;;;;;19.38;55.98;100671.03;5016554;28;45551;-76
2021/08/02 01:38:14;;;;;;;;;3.25;1.75;;;;;19.37;56.04;100679.19;5016706;28;46187;-75
2021/08/02 01:40:40;;;;;;;;;3.00;3.00;;;;;19.35;56.18;100681.16;5016837;28;45664;-80
2021/08/02 01:43:08;;;;;;;;;3.00;2.75;;;;;19.34;55.96;100682.16;5016835;28;45563;-76
2021/08/02 01:46:01;;;;;;;;;4.00;4.00;;;;;19.33;56.09;100672.50;5016402;28;46832;-79
2021/08/02 01:48:45;;;;;;;;;2.75;2.25;;;;;19.32;56.10;100676.19;5016739;28;45808;-76
2021/08/02 01:51:45;;;;;;;;;2.50;2.50;;;;;19.26;56.67;100665.22;5017020;28;45544;-78
2021/08/02 01:54:48;;;;;;;;;4.00;4.00;;;;;19.25;56.94;100676.84;4936383;28;45620;-76
2021/08/02 02:00:38;;;;;;;;;4.25;2.50;;;;;19.17;56.53;100671.50;4939093;28;45565;-79
2021/08/02 02:03:17;;;;;;;;;4.50;4.00;;;;;19.18;56.26;100680.31;4941551;28;45780;-77
2021/08/02 02:05:51;;;;;;;;;2.50;2.50;;;;;19.16;56.42;100675.16;4943681;28;45687;-79
2021/08/02 02:08:21;;;;;;;;;2.00;2.00;;;;;19.16;56.42;100671.69;4942836;28;45973;-77
2021/08/02 02:10:55;;;;;;;;;4.00;4.00;;;;;19.14;56.51;100669.19;4935987;28;45923;-78
2021/08/02 02:16:47;;;;;;;;;3.00;3.00;;;;;19.15;56.65;100670.03;4935911;28;45883;-76
2021/08/02 02:19:15;;;;;;;;;3.75;2.75;;;;;19.11;57.07;100664.19;4935521;28;46473;-74
2021/08/02 02:21:43;;;;;;;;;4.00;3.50;;;;;19.07;57.02;100656.69;4935595;28;45993;-76
2021/08/02 02:24:09;;;;;;;;;2.50;2.50;;;;;19.14;56.70;100663.88;4935510;28;45613;-77
2021/08/02 02:26:35;;;;;;;;;5.25;4.25;;;;;19.13;57.05;100661.38;4935206;28;45641;-77
2021/08/02 02:32:24;;;;;;;;;5.25;4.00;;;;;19.01;57.39;100641.41;5015303;28;45657;-78
2021/08/02 02:34:51;;;;;;;;;3.25;3.25;;;;;19.03;57.00;100660.69;5015481;28;45642;-77
2021/08/02 02:37:17;;;;;;;;;4.50;4.00;;;;;19.07;57.57;100660.19;5015937;28;45446;-77
2021/08/02 02:39:43;;;;;;;;;5.00;5.00;;;;;19.07;57.24;100667.31;5015431;28;46683;-80
2021/08/02 02:42:09;;;;;;;;;3.75;3.75;;;;;19.07;57.61;100665.50;5015225;28;47314;-77
2021/08/02 02:47:57;;;;;;;;;3.00;2.50;;;;;19.06;56.95;100668.31;5015497;28;45742;-77
2021/08/02 02:50:25;;;;;;;;;4.50;4.25;;;;;19.03;57.34;100672.13;5015561;28;45571;-77
2021/08/02 02:52:51;;;;;;;;;5.25;5.00;;;;;19.03;57.53;100672.13;5014983;28;46050;-79
2021/08/02 02:55:17;;;;;;;;;3.50;3.50;;;;;19.03;57.54;100671.31;5015516;28;45917;-80
2021/08/02 02:57:42;;;;;;;;;6.25;5.50;;;;;19.03;57.65;100673.97;5015614;28;45761;-79
2021/08/02 03:00:09;;;;;;;;;3.50;3.50;;;;;18.97;57.52;100653.38;5015267;28;46517;-77
2021/08/02 03:02:37;;;;;;;;;6.25;6.25;;;;;19.02;57.17;100666.97;5014846;28;46993;-79
2021/08/02 03:05:06;;;;;;;;;5.00;4.00;;;;;19.05;57.08;100672.81;5015262;28;45866;-78
2021/08/02 03:07:32;;;;;;;;;5.00;5.00;;;;;19.05;57.51;100675.47;5015119;28;45641;-77
2021/08/02 03:09:59;;;;;;;;;4.75;4.25;;;;;19.02;57.40;100666.97;5014781;28;47586;-78
2021/08/02 03:12:25;;;;;;;;;3.50;2.50;;;;;19.03;57.24;100666.00;5014844;28;46093;-77
2021/08/02 03:14:51;;;;;;;;;3.00;2.25;;;;;18.97;57.75;100662.16;4997205;28;45675;-77
2021/08/02 03:17:16;;;;;;;;;4.25;3.50;;;;;19.01;57.77;100663.50;4997489;28;45988;-78
2021/08/02 03:19:42;;;;;;;;;3.50;2.50;;;;;19.00;57.49;100669.00;5015084;28;46615;-79
2021/08/02 03:22:17;;;;;;;;;6.25;6.25;;;;;18.94;57.26;100666.97;5015532;28;47534;-77
2021/08/02 03:24:46;;;;;;;;;6.50;5.50;;;;;18.98;57.81;100676.28;5016273;28;45595;-78
2021/08/02 03:27:23;;;;;;;;;5.75;5.00;;;;;18.98;57.59;100676.28;5016948;28;45667;-81
2021/08/02 03:33:15;;;;;;;;;4.00;4.00;;;;;18.95;57.53;100671.31;5015880;28;45882;-81
2021/08/02 03:35:44;;;;;;;;;6.75;6.00;;;;;18.96;57.64;100684.41;5016585;28;45673;-80
2021/08/02 03:38:14;;;;;;;;;4.50;4.50;;;;;18.93;57.93;100681.25;5018214;28;45470;-79
2021/08/02 03:40:42;;;;;;;;;4.75;4.75;;;;;18.96;57.84;100688.88;5000546;28;47965;-78
2021/08/02 03:43:08;;;;;;;;;8.00;8.00;;;;;18.93;57.92;100690.03;5020889;28;46474;-80
2021/08/02 03:45:34;;;;;;;;;6.50;5.50;;;;;18.92;58.01;100688.38;5020701;28;45457;-80
2021/08/02 03:48:02;;;;;;;;;12.75;12.00;;;;;18.90;57.99;100685.03;5018902;28;45697;-79
2021/08/02 03:50:27;;;;;;;;;5.00;4.00;;;;;18.66;57.85;100648.63;5019432;28;46317;-81
2021/08/02 03:52:52;;;;;;;;;7.75;7.50;;;;;18.85;57.83;100679.38;5021430;28;45707;-80
2021/08/02 03:55:21;;;;;;;;;3.00;3.00;;;;;18.85;58.43;100695.31;5022208;28;45613;-81
2021/08/02 03:57:47;;;;;;;;;4.50;3.00;;;;;18.83;58.16;100700.78;5021985;28;45555;-81
2021/08/02 04:00:12;;;;;;;;;4.75;4.00;;;;;18.80;58.54;100705.56;5019671;28;46617;-81
2021/08/02 04:02:38;;;;;;;;;6.50;6.25;;;;;18.78;58.19;100703.09;5015205;28;45663;-82
2021/08/02 04:05:04;;;;;;;;;4.50;4.50;;;;;18.78;58.41;100708.41;5014730;28;45673;-79
2021/08/02 04:07:29;;;;;;;;;4.00;3.75;;;;;18.77;58.75;100708.56;5014669;28;45454;-79
2021/08/02 04:09:54;;;;;;;;;5.00;4.25;;;;;18.73;58.77;100717.84;5014712;28;45823;-80
2021/08/02 04:12:20;;;;;;;;;3.50;3.50;;;;;18.67;58.93;100719.31;5014554;28;46036;-82
2021/08/02 04:18:07;;;;;;;;;4.00;3.00;;;;;18.51;58.86;100732.47;5014269;28;45621;-81
2021/08/02 04:20:32;;;;;;;;;5.00;3.25;;;;;18.37;58.96;100725.06;5014324;28;45527;-77
2021/08/02 04:22:57;;;;;;;;;5.25;5.00;;;;;18.36;59.15;100736.66;5014257;28;46049;-75
2021/08/02 04:25:23;;;;;;;;;5.50;4.00;;;;;18.26;59.77;100727.97;5014167;28;45441;-79
2021/08/02 04:27:49;;;;;;;;;3.50;3.50;;;;;18.06;59.59;100714.06;5014235;28;45929;-79
2021/08/02 04:33:37;;;;;;;;;4.50;4.50;;;;;18.15;60.07;100738.81;5014764;28;45952;-77
2021/08/02 04:36:03;;;;;;;;;4.50;4.00;;;;;18.10;59.87;100733.97;5017536;28;45608;-80
2021/08/02 04:38:29;;;;;;;;;6.00;5.00;;;;;18.09;59.67;100729.66;5017631;28;45539;-79
2021/08/02 04:40:55;;;;;;;;;0.75;0.50;;;;;17.99;60.24;100710.38;5017238;28;47165;-79
2021/08/02 04:43:21;;;;;;;;;4.75;4.75;;;;;17.98;60.36;100709.53;5017448;28;45989;-81
2021/08/02 04:45:46;;;;;;;;;6.25;5.00;;;;;18.08;60.04;100725.38;5017538;28;45646;-78
2021/08/02 04:48:12;;;;;;;;;10.00;7.50;;;;;18.01;59.82;100725.16;5017833;28;45766;-79
2021/08/02 04:50:38;;;;;;;;;4.25;4.25;;;;;18.08;59.80;100728.03;5017680;28;45841;-79
2021/08/02 04:53:04;;;;;;;;;4.50;3.75;;;;;18.05;60.39;100733.63;5016981;28;45914;-81
2021/08/02 04:55:30;;;;;;;;;5.50;4.75;;;;;18.07;60.44;100728.16;5017125;28;45753;-81
2021/08/02 04:57:56;;;;;;;;;5.50;5.00;;;;;18.06;60.47;100726.50;5017595;28;45694;-82
2021/08/02 05:03:42;;;;;;;;;5.00;5.00;;;;;17.96;60.19;100730.09;5016801;28;45517;-82
2021/08/02 05:06:08;;;;;;;;;4.50;4.00;;;;;18.04;60.48;100734.59;5017209;28;45672;-79
2021/08/02 05:08:33;;;;;;;;;3.50;3.00;;;;;18.06;60.23;100739.75;5017475;28;45582;-78
2021/08/02 05:10:58;;;;;;;;;4.50;4.00;;;;;17.96;60.40;100719.47;5016610;28;45574;-79
2021/08/02 05:13:24;;;;;;;;;5.00;4.75;;;;;18.06;60.59;100745.06;5016712;28;45672;-81
2021/08/02 05:15:49;;;;;;;;;6.50;5.25;;;;;18.05;60.28;100733.63;5016896;28;45618;-77
2021/08/02 05:18:15;;;;;;;;;6.00;6.00;;;;;18.06;60.67;100734.44;5016907;28;45655;-78
2021/08/02 05:20:41;;;;;;;;;5.50;5.00;;;;;18.00;60.59;100725.28;5016849;28;46213;-80
2021/08/02 05:23:07;;;;;;;;;4.00;4.00;;;;;18.10;60.28;100741.09;5014363;28;47856;-81
2021/08/02 05:25:33;;;;;;;;;5.00;5.00;;;;;18.06;60.54;100737.94;5016926;28;45534;-81
2021/08/02 05:27:58;;;;;;;;;2.00;2.00;;;;;18.13;60.97;100743.47;5017486;28;45671;-81
2021/08/02 05:33:45;;;;;;;;;5.00;3.00;;;;;18.13;60.72;100744.31;5016685;28;46031;-79
2021/08/02 05:36:11;;;;;;;;;6.25;4.50;;;;;18.16;61.30;100751.09;5017497;28;45653;-81
2021/08/02 05:38:36;;;;;;;;;5.00;4.00;;;;;18.18;60.98;100752.63;5017283;28;45500;-80
2021/08/02 05:41:02;;;;;;;;;6.25;4.75;;;;;18.18;61.06;100752.63;5017908;28;46324;-81
2021/08/02 05:43:27;;;;;;;;;3.00;3.00;;;;;18.21;61.29;100754.94;5018607;28;45493;-81
2021/08/02 05:49:14;;;;;;;;;4.25;4.25;;;;;18.25;60.52;100755.47;5021650;28;45678;-79
2021/08/02 05:51:40;;;;;;;;;3.00;3.00;;;;;18.28;60.95;100755.19;5023800;28;46323;-81
2021/08/02 05:54:05;;;;;;;;;3.00;3.00;;;;;18.34;60.88;100763.34;5024763;28;46181;-82
2021/08/02 05:56:31;;;;;;;;;4.00;4.00;;;;;18.26;61.04;100749.19;5025005;28;45500;-81
2021/08/02 05:58:56;;;;;;;;;3.75;3.75;;;;;18.40;61.12;100768.03;5021444;28;45567;-80
2021/08/02 06:01:21;;;;;;;;;4.25;4.25;;;;;18.42;60.72;100763.41;5016644;28;46569;-77
2021/08/02 06:03:47;;;;;;;;;3.75;3.75;;;;;18.43;61.06;100761.56;5016310;28;45706;-77
2021/08/02 06:06:12;;;;;;;;;3.50;3.50;;;;;18.48;60.98;100771.72;5016394;28;45445;-77
2021/08/02 06:08:40;;;;;;;;;5.50;5.00;;;;;18.46;60.62;100767.38;5016273;28;45722;-78
2021/08/02 06:11:06;;;;;;;;;5.50;4.00;;;;;18.47;60.46;100757.63;5015692;28;47350;-78
2021/08/02 06:13:32;;;;;;;;;4.50;4.50;;;;;18.53;60.86;100766.78;5015986;28;45718;-77
2021/08/02 06:19:19;;;;;;;;;4.50;4.00;;;;;18.56;60.73;100764.69;5015857;28;45506;-77
2021/08/02 06:21:44;;;;;;;;;4.00;3.25;;;;;18.59;60.38;100763.53;5015848;28;46717;-77
2021/08/02 06:24:10;;;;;;;;;4.75;4.25;;;;;18.57;60.19;100750.41;5015743;28;45699;-76
2021/08/02 06:26:37;;;;;;;;;4.50;4.00;;;;;18.64;60.66;100762.06;5015907;28;45841;-77
2021/08/02 06:29:02;;;;;;;;;5.00;4.50;;;;;18.72;60.45;100772.75;5016057;28;45634;-76
2021/08/02 06:34:49;;;;;;;;;4.75;4.00;;;;;18.79;60.21;100779.06;5015345;28;45901;-77
2021/08/02 06:37:14;;;;;;;;;5.25;4.50;;;;;18.77;60.17;100767.78;5015651;28;45584;-76
2021/08/02 06:39:40;;;;;;;;;5.50;5.50;;;;;18.86;60.26;100784.59;5015859;28;45703;-76
2021/08/02 06:42:05;;;;;;;;;7.00;4.50;;;;;18.86;60.50;100772.16;5015328;28;45623;-76
2021/08/02 06:44:30;;;;;;;;;3.75;3.50;;;;;18.89;60.23;100778.16;5015238;28;45428;-77
2021/08/02 06:46:56;;;;;;;;;4.75;4.25;;;;;18.97;60.10;100780.81;5015683;28;45803;-78
2021/08/02 06:49:21;;;;;;;;;5.00;5.00;;;;;19.00;59.96;100777.88;5015598;28;45667;-76
2021/08/02 06:51:47;;;;;;;;;6.00;5.00;;;;;19.01;60.18;100793.63;5014709;28;46758;-79
2021/08/02 06:54:12;;;;;;;;;5.75;5.00;;;;;19.02;60.11;100786.50;5015347;28;45681;-80
2021/08/02 06:56:37;;;;;;;;;6.00;5.00;;;;;19.02;59.99;100792.63;5014398;28;46195;-80
2021/08/02 06:59:03;;;;;;;;;4.25;4.25;;;;;19.02;60.53;100786.50;5015544;28;45795;-79
2021/08/02 07:04:50;;;;;;;;;8.00;7.00;;;;;19.06;60.33;100787.81;5014726;28;45627;-77
2021/08/02 07:07:16;;;;;;;;;5.75;4.50;;;;;19.04;60.34;100787.19;5015147;28;45687;-78
2021/08/02 07:09:41;;;;;;;;;5.50;5.50;;;;;19.10;60.00;100787.38;5015392;28;45709;-76
2021/08/02 07:12:07;;;;;;;;;6.00;5.75;;;;;19.09;60.54;100782.22;5014958;28;45603;-79
2021/08/02 07:14:32;;;;;;;;;6.75;5.75;;;;;19.14;60.27;100788.72;5015311;28;46075;-77
2021/08/02 07:16:58;;;;;;;;;6.00;5.25;;;;;19.16;60.49;100792.03;5015177;28;45651;-79
2021/08/02 07:19:23;;;;;;;;;3.75;3.75;;;;;19.17;60.63;100795.50;5015468;28;45702;-78
2021/08/02 07:21:49;;;;;;;;;4.50;4.50;;;;;19.17;60.37;100790.19;5014915;28;45680;-78
2021/08/02 07:24:14;;;;;;;;;6.00;5.00;;;;;19.10;60.50;100779.41;5014643;28;46755;-78
2021/08/02 07:26:40;;;;;;;;;5.50;5.00;;;;;19.18;60.19;100789.22;5014860;28;45540;-75
2021/08/02 07:29:05;;;;;;;;;6.25;5.25;;;;;19.20;60.14;100788.06;5015130;28;45662;-75
2021/08/02 07:34:52;;;;;;;;;7.00;6.50;;;;;19.27;60.17;100781.09;5014927;28;45728;-79
2021/08/02 07:37:17;;;;;;;;;5.00;4.75;;;;;19.29;60.44;100780.97;5015307;28;45677;-79
2021/08/02 07:39:43;;;;;;;;;5.75;5.50;;;;;19.32;60.09;100782.47;5017105;28;45744;-78
2021/08/02 07:42:08;;;;;;;;;4.75;4.00;;;;;19.37;60.49;100778.34;5019772;28;46509;-81
2021/08/02 07:44:34;;;;;;;;;5.00;5.00;;;;;19.47;60.26;100788.84;5020367;28;45865;-81
2021/08/02 07:50:22;;;;;;;;;6.75;6.75;;;;;19.58;59.99;100786.72;5021795;28;45658;-80
2021/08/02 07:52:47;;;;;;;;;4.75;4.75;;;;;19.63;60.29;100786.25;5022303;28;45801;-80
2021/08/02 07:55:13;;;;;;;;;7.00;6.00;;;;;19.69;60.09;100790.91;5022202;28;45657;-78
2021/08/02 07:57:39;;;;;;;;;7.25;6.00;;;;;19.74;59.85;100793.06;5022316;28;45593;-77
2021/08/02 08:00:06;;;;;;;;;7.00;5.50;;;;;19.77;60.04;100793.56;5020700;28;45619;-77
2021/08/02 08:02:31;;;;;;;;;7.00;6.75;;;;;19.83;60.16;100798.22;5015185;28;47142;-77
2021/08/02 08:04:57;;;;;;;;;6.00;6.00;;;;;19.90;59.96;100796.59;5014572;28;46365;-77
2021/08/02 08:07:22;;;;;;;;;6.25;5.00;;;;;19.81;59.88;100772.81;5015233;28;45488;-77
2021/08/02 08:09:48;;;;;;;;;6.50;6.25;;;;;19.92;59.68;100789.25;5018584;28;45510;-77
2021/08/02 08:12:13;;;;;;;;;6.75;5.25;;;;;19.97;59.69;100794.91;5018031;28;46690;-78
2021/08/02 08:14:38;;;;;;;;;7.75;5.00;;;;;20.01;59.74;100798.09;5018088;28;45548;-78
2021/08/02 08:20:26;;;;;;;;;4.75;4.50;;;;;20.03;59.43;100790.75;5018121;28;45604;-79
2021/08/02 08:22:52;;;;;;;;;5.25;4.50;;;;;20.11;59.59;100799.59;5018036;28;46390;-78
2021/08/02 08:25:18;;;;;;;;;5.00;4.00;;;;;20.08;59.23;100783.94;5017970;28;45991;-77
2021/08/02 08:27:45;;;;;;;;;3.75;3.50;;;;;20.18;59.31;100793.63;5018252;28;45514;-76
2021/08/02 08:30:11;;;;;;;;;6.75;6.00;;;;;20.22;59.14;100793.09;5018187;28;45505;-75
2021/08/02 08:32:37;;;;;;;;;6.00;4.00;;;;;20.26;59.11;100785.63;5017550;28;46678;-77
2021/08/02 08:35:03;;;;;;;;;5.00;4.50;;;;;20.25;58.92;100778.63;5017698;28;45501;-77
2021/08/02 08:37:28;;;;;;;;;5.25;4.50;;;;;20.37;58.74;100787.97;5017887;28;45536;-77
2021/08/02 08:39:54;;;;;;;;;4.75;4.75;;;;;20.42;58.79;100785.63;5017969;28;45778;-77
2021/08/02 08:42:19;;;;;;;;;3.50;3.50;;;;;20.48;58.87;100785.78;5017568;28;47216;-77
2021/08/02 08:44:44;;;;;;;;;6.75;5.25;;;;;20.54;58.71;100778.97;5017293;28;47116;-78
2021/08/02 08:50:31;;;;;;;;;7.00;6.00;;;;;20.65;58.64;100780.44;5017627;28;45745;-79
2021/08/02 08:52:57;;;;;;;;;5.75;4.50;;;;;20.72;58.29;100776.94;5017019;28;46617;-80
2021/08/02 08:55:23;;;;;;;;;5.25;5.00;;;;;20.80;58.47;100778.72;5017368;28;45852;-78
2021/08/02 08:57:49;;;;;;;;;5.00;4.25;;;;;20.78;58.25;100767.44;5017299;28;45703;-79
2021/08/02 09:00:26;;;;;;;;;4.75;4.75;;;;;20.87;57.90;100771.72;5017499;28;45729;-81
2021/08/02 09:02:53;;;;;;;;;4.25;3.75;;;;;20.93;58.24;100782.53;4998938;28;48418;-80
2021/08/02 09:05:19;;;;;;;;;4.00;4.00;;;;;20.94;58.00;100770.84;5017288;28;46308;-78
2021/08/02 09:07:46;;;;;;;;;4.00;4.00;;;;;20.97;57.91;100776.84;5017233;28;45676;-80
2021/08/02 09:10:16;;;;;;;;;5.00;5.00;;;;;21.03;57.54;100789.50;5017354;28;45839;-79
2021/08/02 09:12:53;;;;;;;;;4.00;4.00;;;;;20.89;56.99;100770.53;5016582;28;47421;-79
2021/08/02 09:15:42;;;;;;;;;4.25;4.00;;;;;20.97;57.31;100779.50;5016662;28;46212;-78
2021/08/02 09:18:26;;;;;;;;;4.50;3.75;;;;;20.97;57.14;100782.19;5016898;28;45553;-77
2021/08/02 09:21:03;;;;;;;;;3.50;3.50;;;;;21.01;57.14;100786.16;5016587;28;45635;-77
2021/08/02 09:23:30;;;;;;;;;4.25;4.00;;;;;21.02;56.67;100783.31;5016581;28;47829;-77
2021/08/02 09:25:59;;;;;;;;;3.25;3.00;;;;;21.01;56.86;100775.50;5016579;28;46267;-78
2021/08/02 09:28:27;;;;;;;;;3.50;3.50;;;;;20.97;56.51;100772.34;5016829;28;45763;-78
2021/08/02 09:31:00;;;;;;;;;3.00;2.00;;;;;21.10;56.58;100779.81;5017112;28;45638;-77
2021/08/02 09:33:31;;;;;;;;;2.75;2.00;;;;;21.14;56.07;100775.78;5016356;28;46295;-76
2021/08/02 09:36:00;;;;;;;;;3.00;2.75;;;;;21.21;55.99;100790.13;5016646;28;45988;-76
2021/08/02 09:38:26;;;;;;;;;3.00;3.00;;;;;21.24;55.56;100781.78;5016756;28;45718;-76
2021/08/02 09:40:57;;;;;;;;;3.50;3.50;;;;;21.29;55.78;100785.56;5016716;28;45615;-77
2021/08/02 09:43:25;;;;;;;;;3.00;3.00;;;;;21.26;55.52;100763.78;5016820;28;45634;-77
2021/08/02 09:45:56;;;;;;;;;2.00;2.00;;;;;21.39;55.35;100773.84;5017055;28;46372;-78
2021/08/02 09:48:33;;;;;;;;;2.00;2.00;;;;;21.35;55.65;100760.88;5019662;28;45604;-78
2021/08/02 09:51:08;;;;;;;;;3.00;3.00;;;;;21.54;55.32;100772.94;5018348;28;45637;-78
2021/08/02 09:53:44;;;;;;;;;3.75;3.75;;;;;21.61;54.99;100781.06;5022426;28;45647;-79
2021/08/02 09:56:15;;;;;;;;;3.00;2.50;;;;;21.69;54.69;100776.53;5023451;28;47311;-78
2021/08/02 09:58:42;;;;;;;;;3.50;3.50;;;;;21.69;54.54;100770.34;5023360;28;45685;-78
2021/08/02 10:01:08;;;;;;;;;2.00;2.00;;;;;21.76;54.03;100776.63;5023482;28;45821;-77
2021/08/02 10:03:35;;;;;;;;;3.50;3.00;;;;;21.76;53.67;100772.13;5005028;28;46518;-78
2021/08/02 10:06:02;;;;;;;;;3.00;3.00;;;;;21.80;53.52;100774.44;5022636;28;46757;-79
2021/08/02 10:08:28;;;;;;;;;5.00;3.00;;;;;21.78;53.75;100764.78;5016900;28;45584;-79
2021/08/02 10:10:53;;;;;;;;;2.50;2.25;;;;;21.78;53.74;100753.28;5016468;28;45731;-78
2021/08/02 10:13:29;;;;;;;;;3.75;3.00;;;;;21.91;53.26;100771.38;5016180;28;45734;-79
2021/08/02 10:16:01;;;;;;;;;2.75;2.00;;;;;21.94;53.21;100776.34;5016740;28;45934;-80
2021/08/02 10:18:29;;;;;;;;;2.25;2.00;;;;;22.00;52.70;100773.00;5016293;28;45782;-79
2021/08/02 10:21:11;;;;;;;;;4.00;3.50;;;;;22.02;52.61;100774.50;5016181;28;45694;-79
2021/08/02 10:23:40;;;;;;;;;4.00;3.00;;;;;22.01;52.30;100777.31;5015934;28;46531;-78
2021/08/02 10:26:31;;;;;;;;;1.25;1.25;;;;;22.02;52.12;100779.00;5015544;28;46201;-79
2021/08/02 10:29:04;;;;;;;;;2.75;2.00;;;;;22.02;52.23;100779.81;5011913;28;45846;-79
2021/08/02 10:31:51;;;;;;;;;2.50;2.50;;;;;22.05;51.93;100775.94;4997856;28;45562;-78
2021/08/02 10:34:22;;;;;;;;;2.00;2.00;;;;;22.08;51.74;100773.75;5015738;28;45692;-79
2021/08/02 10:36:57;;;;;;;;;3.50;2.50;;;;;22.13;51.86;100775.91;5015809;28;46399;-78
2021/08/02 10:39:24;;;;;;;;;2.75;2.00;;;;;22.15;51.53;100771.19;5015733;28;45544;-79
2021/08/02 10:41:50;;;;;;;;;3.00;3.00;;;;;22.23;51.72;100775.63;5015992;28;45537;-78
2021/08/02 10:44:16;;;;;;;;;2.75;2.75;;;;;22.29;51.66;100775.75;5015679;28;46563;-79
2021/08/02 10:46:42;;;;;;;;;2.00;2.00;;;;;22.35;51.92;100774.19;5015697;28;45908;-79
2021/08/02 10:49:15;;;;;;;;;3.00;2.00;;;;;22.37;51.62;100764.97;5015595;28;45710;-80
2021/08/02 10:51:50;;;;;;;;;4.00;3.00;;;;;22.44;51.60;100767.75;5015252;28;45492;-76
2021/08/02 10:54:17;;;;;;;;;3.50;3.00;;;;;22.47;51.90;100764.72;5015350;28;45465;-77
2021/08/02 10:56:48;;;;;;;;;2.00;2.00;;;;;22.55;52.21;100761.97;5015477;28;45873;-77
2021/08/02 10:59:14;;;;;;;;;2.50;2.50;;;;;22.58;51.65;100767.78;5015491;28;45631;-79
2021/08/02 11:01:49;;;;;;;;;4.00;3.00;;;;;22.62;51.41;100770.09;5015559;28;45754;-78
2021/08/02 11:04:17;;;;;;;;;3.00;2.75;;;;;22.54;51.70;100763.81;5014931;28;46488;-76
2021/08/02 11:06:45;;;;;;;;;2.25;2.00;;;;;22.50;51.63;100761.69;5014852;28;46419;-77
2021/08/02 11:09:10;;;;;;;;;4.00;3.00;;;;;22.53;51.01;100762.16;5015413;28;45534;-77
2021/08/02 11:11:37;;;;;;;;;5.00;4.00;;;;;22.54;51.79;100769.16;5015013;28;45706;-77
2021/08/02 11:14:05;;;;;;;;;3.50;3.50;;;;;22.56;51.57;100769.78;5015046;28;45548;-75
2021/08/02 11:16:37;;;;;;;;;4.00;4.00;;;;;22.50;51.50;100757.19;5015047;28;46372;-75
2021/08/02 11:19:13;;;;;;;;;4.75;4.50;;;;;22.56;51.16;100766.31;5015133;28;45721;-76
2021/08/02 11:21:38;;;;;;;;;4.00;4.00;;;;;22.58;51.12;100765.09;5015102;28;45464;-76
2021/08/02 11:24:08;;;;;;;;;4.00;3.50;;;;;22.57;51.47;100751.91;5014818;28;46208;-76
2021/08/02 11:26:48;;;;;;;;;5.00;4.00;;;;;22.62;51.38;100764.75;5014916;28;46267;-76
2021/08/02 11:29:25;;;;;;;;;4.50;3.75;;;;;22.58;51.37;100759.75;5015166;28;45545;-75
2021/08/02 11:32:08;;;;;;;;;4.00;3.00;;;;;22.56;50.92;100753.75;5014628;28;45588;-74
2021/08/02 11:34:34;;;;;;;;;5.00;4.00;;;;;22.41;51.22;100723.53;5014905;28;45518;-74
2021/08/02 11:37:14;;;;;;;;;6.50;4.00;;;;;22.57;50.58;100743.91;5014929;28;45965;-77
2021/08/02 11:39:45;;;;;;;;;5.00;4.00;;;;;22.61;50.65;100747.91;5014964;28;45674;-76
2021/08/02 11:42:16;;;;;;;;;3.25;3.00;;;;;22.63;50.77;100740.50;5014529;28;45793;-76
2021/08/02 11:44:48;;;;;;;;;4.00;3.00;;;;;22.68;50.30;100731.94;5014504;28;46355;-77
2021/08/02 11:47:23;;;;;;;;;4.75;4.00;;;;;22.73;50.44;100733.06;5014320;28;46172;-76
2021/08/02 11:49:51;;;;;;;;;4.00;4.00;;;;;22.76;50.10;100738.06;5015276;28;45689;-74
2021/08/02 11:52:19;;;;;;;;;3.75;3.75;;;;;22.77;50.36;100731.72;5019665;28;45668;-77
2021/08/02 11:54:47;;;;;;;;;4.00;3.50;;;;;22.80;50.34;100735.84;5014705;28;46603;-77
2021/08/02 11:57:20;;;;;;;;;2.00;2.00;;;;;22.86;50.23;100743.94;5019558;28;46186;-78
2021/08/02 12:00:02;;;;;;;;;2.00;2.00;;;;;22.89;50.08;100732.88;5021860;28;45807;-77
2021/08/02 12:02:35;;;;;;;;;4.00;4.00;;;;;23.01;50.33;100742.09;5020477;28;45484;-79
2021/08/02 12:05:03;;;;;;;;;3.00;3.00;;;;;23.06;50.06;100738.03;5017722;28;47883;-77
2021/08/02 12:07:32;;;;;;;;;3.00;3.00;;;;;23.13;49.68;100737.09;5022291;28;45505;-78
2021/08/02 12:10:08;;;;;;;;;2.75;2.75;;;;;23.19;49.51;100732.84;5021303;28;45622;-79
2021/08/02 12:12:37;;;;;;;;;3.75;3.75;;;;;23.29;49.40;100741.41;5014682;28;45690;-78
2021/08/02 12:15:07;;;;;;;;;4.25;4.00;;;;;23.36;49.69;100739.63;5014821;28;45520;-79
2021/08/02 12:17:44;;;;;;;;;4.00;3.00;;;;;23.41;49.59;100731.88;5015112;28;46054;-79
2021/08/02 12:20:10;;;;;;;;;4.00;2.75;;;;;23.40;49.85;100722.19;5014511;28;45780;-80
2021/08/02 12:22:37;;;;;;;;;3.00;3.00;;;;;23.50;49.51;100737.94;5014285;28;45611;-80
2021/08/02 12:25:04;;;;;;;;;3.00;2.25;;;;;23.51;48.28;100726.25;5014152;28;45585;-80
2021/08/02 12:27:30;;;;;;;;;4.00;3.25;;;;;23.56;48.17;100735.34;5014304;28;47471;-79